Time;durP1;ratioP1;P1;durP2;ratioP2;P2;SDS_P1;SDS_P2;PMS_P1;PMS_P2;Temp;Humidity;BMP_temperature;BMP_pressure;BME280_temperature;BME280_humidity;BME280_pressure;Samples;Min_cycle;Max_cycle;Signal;HPM_P1;HPM_P2
2024/04/04 00:01:09;;;;;;;4.57;2.28;;;;;;;9.84;100.00;99895.91;7382051;19;20471;-72
2024/04/04 00:03:36;;;;;;;4.10;2.15;;;;;;;9.80;100.00;99905.75;7389731;19;20829;-74
2024/04/04 00:06:02;;;;;;;3.78;2.33;;;;;;;9.81;100.00;99909.25;7388162;19;20018;-72
2024/04/04 00:08:28;;;;;;;4.00;2.25;;;;;;;9.43;100.00;99848.66;7390311;19;20375;-74
2024/04/04 00:10:57;;;;;;;4.75;2.20;;;;;;;9.39;100.00;99849.75;7381979;19;20007;-73
2024/04/04 00:13:24;;;;;;;5.55;1.60;;;;;;;9.58;100.00;99883.16;7390299;19;20007;-73
2024/04/04 00:15:50;;;;;;;3.88;1.75;;;;;;;9.58;100.00;99886.66;7389973;19;20013;-73
2024/04/04 00:18:18;;;;;;;5.85;2.38;;;;;;;9.49;100.00;99882.69;7390741;19;20482;-72
2024/04/04 00:20:43;;;;;;;3.55;1.50;;;;;;;9.58;100.00;99901.66;7380099;19;20364;-72
2024/04/04 00:23:09;;;;;;;4.63;1.65;;;;;;;9.44;100.00;99884.69;7386733;19;20010;-73
2024/04/04 00:25:34;;;;;;;3.53;1.60;;;;;;;9.24;100.00;99858.44;7391502;19;20086;-73
2024/04/04 00:28:00;;;;;;;3.90;1.77;;;;;;;9.38;100.00;99892.94;7388310;19;20014;-72
2024/04/04 00:30:26;;;;;;;3.58;1.45;;;;;;;9.34;100.00;99888.75;7359724;19;20042;-74
2024/04/04 00:32:54;;;;;;;4.57;1.63;;;;;;;9.18;100.00;99850.81;7386777;19;20007;-72
2024/04/04 00:35:20;;;;;;;5.45;1.88;;;;;;;9.40;100.00;99895.53;7388717;19;20373;-73
2024/04/04 00:37:47;;;;;;;6.03;2.40;;;;;;;9.32;100.00;99889.75;7391475;19;20037;-74
2024/04/04 00:40:14;;;;;;;4.05;2.05;;;;;;;8.95;100.00;99822.06;7381835;19;20027;-73
2024/04/04 00:42:39;;;;;;;5.95;2.15;;;;;;;9.18;100.00;99865.81;7384584;19;20006;-72
2024/04/04 00:45:06;;;;;;;3.55;1.85;;;;;;;8.96;100.00;99832.53;7389187;19;20418;-72
2024/04/04 00:47:32;;;;;;;2.55;1.60;;;;;;;9.30;100.00;99892.47;7389325;19;20003;-73
2024/04/04 00:49:58;;;;;;;4.60;1.90;;;;;;;9.06;100.00;99851.41;7388576;19;20018;-73
2024/04/04 00:52:24;;;;;;;4.03;1.80;;;;;;;9.09;100.00;99856.56;7379996;19;20432;-72
2024/04/04 00:54:50;;;;;;;3.10;1.80;;;;;;;9.09;100.00;99857.41;7386999;19;20010;-72
2024/04/04 00:57:16;;;;;;;7.95;1.75;;;;;;;9.05;100.00;99858.50;7384977;19;20108;-72
2024/04/04 00:59:42;;;;;;;3.45;1.80;;;;;;;9.19;100.00;99886.88;7388171;19;20026;-72
2024/04/04 01:02:08;;;;;;;3.05;1.70;;;;;;;8.97;100.00;99865.09;7378915;19;20017;-72
2024/04/04 01:04:34;;;;;;;3.05;1.40;;;;;;;8.95;100.00;99861.66;7388225;19;20019;-73
2024/04/04 01:06:59;;;;;;;3.33;1.83;;;;;;;9.01;100.00;99874.56;7387090;19;20011;-74
2024/04/04 01:09:25;;;;;;;4.20;1.55;;;;;;;8.90;100.00;99861.03;7385535;19;20031;-72
2024/04/04 01:11:50;;;;;;;2.67;1.70;;;;;;;8.97;100.00;99873.00;7375274;19;20030;-73
2024/04/04 01:14:16;;;;;;;3.30;1.70;;;;;;;8.89;100.00;99859.31;7386291;19;20010;-71
2024/04/04 01:16:42;;;;;;;3.35;1.80;;;;;;;8.99;100.00;99877.25;7387486;19;20011;-72
2024/04/04 01:19:08;;;;;;;3.65;1.70;;;;;;;8.88;100.00;99847.03;7386293;19;20021;-72
2024/04/04 01:21:33;;;;;;;2.72;1.52;;;;;;;8.88;100.00;99847.03;7377859;19;20016;-72
2024/04/04 01:23:59;;;;;;;3.88;1.55;;;;;;;8.99;100.00;99863.19;7385676;19;20021;-73
2024/04/04 01:26:24;;;;;;;3.80;1.65;;;;;;;8.92;100.00;99846.81;7389119;19;20047;-72
2024/04/04 01:28:50;;;;;;;8.52;2.05;;;;;;;9.12;100.00;99877.53;7386659;19;20003;-72
2024/04/04 01:31:15;;;;;;;6.07;1.73;;;;;;;9.26;100.00;99884.78;7377602;19;20094;-72
2024/04/04 01:33:41;;;;;;;4.70;1.77;;;;;;;9.07;100.00;99853.13;7386248;19;20452;-72
2024/04/04 01:36:07;;;;;;;5.43;2.05;;;;;;;9.24;100.00;99876.94;7386455;19;20014;-71
2024/04/04 01:38:32;;;;;;;2.53;1.52;;;;;;;9.33;100.00;99876.47;7385017;19;20010;-72
2024/04/04 01:40:58;;;;;;;4.40;1.90;;;;;;;9.26;100.00;99856.59;7383687;19;20085;-72
2024/04/04 01:43:23;;;;;;;3.65;1.70;;;;;;;9.25;100.00;99831.09;7385358;19;20538;-73
2024/04/04 01:45:49;;;;;;;3.17;1.70;;;;;;;9.29;100.00;99843.19;7385860;19;20006;-71
2024/04/04 01:48:14;;;;;;;3.85;1.85;;;;;;;9.36;100.00;99854.31;7384264;19;20031;-73
2024/04/04 01:50:40;;;;;;;4.35;1.42;;;;;;;9.21;100.00;99818.09;7382716;19;20021;-72
2024/04/04 01:53:06;;;;;;;4.20;1.50;;;;;;;9.46;100.00;99851.13;7383326;19;20015;-71
2024/04/04 01:55:31;;;;;;;3.15;1.30;;;;;;;9.44;100.00;99839.75;7386472;19;20010;-71
2024/04/04 01:57:59;;;;;;;4.72;1.50;;;;;;;9.31;100.00;99819.34;7386367;19;20039;-72
2024/04/04 02:00:26;;;;;;;1.85;1.48;;;;;;;9.47;100.00;99844.91;7384055;19;20014;-72
2024/04/04 02:02:53;;;;;;;4.63;1.38;;;;;;;9.47;100.00;99842.25;7377247;19;20014;-73
2024/04/04 02:05:20;;;;;;;4.55;1.30;;;;;;;9.47;100.00;99836.13;7387885;19;20010;-74
2024/04/04 02:07:45;;;;;;;2.25;1.10;;;;;;;9.31;100.00;99804.34;7384759;19;20007;-72
2024/04/04 02:10:12;;;;;;;4.10;1.23;;;;;;;9.20;100.00;99784.69;7384051;19;20031;-72
2024/04/04 02:12:38;;;;;;;4.65;1.25;;;;;;;9.56;100.00;99825.09;7378546;19;20014;-71
2024/04/04 02:15:04;;;;;;;2.75;1.48;;;;;;;9.46;100.00;99805.34;7386750;19;20007;-71
2024/04/04 02:17:30;;;;;;;2.65;1.27;;;;;;;9.70;100.00;99837.59;7387176;19;20011;-73
2024/04/04 02:19:57;;;;;;;2.97;1.38;;;;;;;9.76;100.00;99838.09;7366540;19;20014;-72
2024/04/04 02:22:23;;;;;;;2.30;1.20;;;;;;;9.61;100.00;99807.19;7376706;19;20010;-73
2024/04/04 02:24:50;;;;;;;3.60;1.13;;;;;;;9.74;100.00;99818.00;7384828;19;20007;-72
2024/04/04 02:27:15;;;;;;;3.33;1.10;;;;;;;9.74;100.00;99805.63;7385412;19;20174;-73
2024/04/04 02:29:43;;;;;;;4.85;1.48;;;;;;;9.43;100.00;99737.66;7385766;19;20006;-73
2024/04/04 02:32:09;;;;;;;3.10;1.35;;;;;;;9.97;100.00;99825.53;7376825;19;20023;-72
2024/04/04 02:34:34;;;;;;;5.38;1.65;;;;;;;9.86;100.00;99809.41;7386364;19;20010;-72
2024/04/04 02:37:00;;;;;;;2.20;1.15;;;;;;;9.87;100.00;99811.13;7382603;19;20029;-72
2024/04/04 02:39:25;;;;;;;2.25;1.20;;;;;;;9.94;100.00;99815.13;7384490;19;20007;-72
2024/04/04 02:41:50;;;;;;;2.47;1.45;;;;;;;9.69;100.00;99767.13;7354392;19;20463;-72
2024/04/04 02:44:16;;;;;;;3.55;1.17;;;;;;;9.83;100.00;99785.75;7385304;19;20014;-71
2024/04/04 02:46:43;;;;;;;3.13;1.35;;;;;;;10.02;100.00;99815.59;7385422;19;20015;-72
2024/04/04 02:49:09;;;;;;;4.03;1.70;;;;;;;10.05;100.00;99803.97;7385278;19;20003;-72
2024/04/04 02:51:35;;;;;;;4.18;1.70;;;;;;;9.90;100.00;99775.72;7381150;19;20007;-71
2024/04/04 02:54:02;;;;;;;4.70;1.58;;;;;;;9.52;100.00;99715.16;7382585;19;20011;-72
2024/04/04 02:56:27;;;;;;;4.28;1.50;;;;;;;9.93;100.00;99770.25;7386209;19;20039;-72
2024/04/04 02:58:54;;;;;;;3.85;1.67;;;;;;;9.96;100.00;99765.66;7390550;19;20010;-72
2024/04/04 03:01:20;;;;;;;4.63;1.80;;;;;;;10.07;100.00;99773.03;7383723;19;20007;-72
2024/04/04 03:03:46;;;;;;;6.65;1.80;;;;;;;10.10;100.00;99778.97;7387262;19;20232;-74
2024/04/04 03:06:16;;;;;;;5.30;2.00;;;;;;;10.27;100.00;99804.53;7391875;19;20015;-72
2024/04/04 03:08:43;;;;;;;4.35;1.90;;;;;;;10.12;100.00;99784.19;7393088;19;20007;-72
2024/04/04 03:11:08;;;;;;;5.05;2.00;;;;;;;10.07;100.00;99770.38;7386974;19;20134;-73
2024/04/04 03:13:34;;;;;;;6.15;2.33;;;;;;;10.18;100.00;99782.09;7386289;19;20361;-74
2024/04/04 03:16:00;;;;;;;4.72;1.80;;;;;;;10.17;100.00;99776.84;7390774;19;20014;-73
2024/04/04 03:18:26;;;;;;;4.35;2.00;;;;;;;10.26;100.00;99791.38;7390377;19;20444;-72
2024/04/04 03:20:53;;;;;;;6.82;2.10;;;;;;;10.29;100.00;99791.22;7387331;19;20014;-72
2024/04/04 03:23:18;;;;;;;6.40;2.30;;;;;;;10.08;100.00;99762.31;7386879;19;20006;-72
2024/04/04 03:25:44;;;;;;;6.53;2.50;;;;;;;10.27;100.00;99796.59;7392682;19;20411;-72
2024/04/04 03:28:10;;;;;;;4.13;2.55;;;;;;;9.94;100.00;99740.22;7388351;19;20113;-73
2024/04/04 03:30:36;;;;;;;2.42;2.10;;;;;;;10.21;100.00;99783.72;7388857;19;20098;-72
2024/04/04 03:33:03;;;;;;;5.65;2.33;;;;;;;10.16;100.00;99765.41;7381827;19;20006;-73
2024/04/04 03:35:29;;;;;;;5.55;2.15;;;;;;;10.25;100.00;99773.81;7392244;19;20018;-72
2024/04/04 03:37:55;;;;;;;6.35;2.50;;;;;;;10.38;100.00;99790.72;7389967;19;20030;-72
2024/04/04 03:40:23;;;;;;;3.92;2.20;;;;;;;10.15;100.00;99746.97;7388335;19;21994;-72
2024/04/04 03:42:48;;;;;;;4.70;2.25;;;;;;;10.41;100.00;99796.69;7383746;19;20006;-72
2024/04/04 03:45:14;;;;;;;7.03;2.90;;;;;;;10.36;100.00;99771.44;7392779;19;20425;-74
2024/04/04 03:47:40;;;;;;;8.48;2.63;;;;;;;10.07;100.00;99715.63;7390738;19;20015;-72
2024/04/04 03:50:05;;;;;;;5.85;2.70;;;;;;;10.31;100.00;99749.66;7390266;19;20420;-73
2024/04/04 03:52:31;;;;;;;5.40;2.67;;;;;;;10.50;100.00;99775.00;7380718;19;20061;-73
2024/04/04 03:54:57;;;;;;;6.80;2.92;;;;;;;9.91;100.00;99669.00;7389504;19;20021;-73
2024/04/04 03:57:24;;;;;;;7.13;3.00;;;;;;;10.48;100.00;99768.09;7391388;19;20006;-72
2024/04/04 03:59:52;;;;;;;4.78;2.65;;;;;;;10.26;100.00;99731.38;7390898;19;20007;-71
2024/04/04 04:02:18;;;;;;;7.15;2.92;;;;;;;10.36;100.00;99748.47;7380107;19;20022;-75
2024/04/04 04:04:44;;;;;;;6.38;2.60;;;;;;;10.22;100.00;99721.06;7390796;19;20020;-74
2024/04/04 04:07:10;;;;;;;5.07;2.35;;;;;;;10.23;100.00;99730.72;7390239;19;20010;-74
2024/04/04 04:09:35;;;;;;;4.30;2.42;;;;;;;9.69;100.00;99637.59;7390030;19;20353;-73
2024/04/04 04:12:01;;;;;;;6.78;2.33;;;;;;;9.91;100.00;99661.06;7382255;19;20011;-72
2024/04/04 04:14:26;;;;;;;5.63;2.30;;;;;;;9.96;100.00;99675.72;7391286;19;20042;-73
2024/04/04 04:16:52;;;;;;;5.55;2.97;;;;;;;10.17;100.00;99716.00;7390104;19;20095;-72
2024/04/04 04:19:18;;;;;;;5.38;3.30;;;;;;;10.08;100.00;99696.19;7391037;19;20426;-71
2024/04/04 04:21:44;;;;;;;5.78;2.60;;;;;;;10.18;100.00;99725.66;7382530;19;20010;-72
2024/04/04 04:24:09;;;;;;;2.90;2.42;;;;;;;10.25;100.00;99740.25;7386759;19;20039;-72
2024/04/04 04:26:35;;;;;;;4.70;2.67;;;;;;;10.25;100.00;99750.00;7392143;19;20039;-72
2024/04/04 04:29:01;;;;;;;5.32;2.70;;;;;;;10.01;100.00;99725.72;7389944;19;20026;-72
2024/04/04 04:31:30;;;;;;;5.75;2.55;;;;;;;10.09;100.00;99752.59;7386468;19;20085;-72
2024/04/04 04:33:57;;;;;;;5.35;2.80;;;;;;;9.80;100.00;99712.72;7384261;19;20017;-72
2024/04/04 04:36:25;;;;;;;3.90;2.80;;;;;;;9.98;100.00;99731.19;7389519;19;20010;-72
2024/04/04 04:38:51;;;;;;;4.50;2.67;;;;;;;9.95;100.00;99734.84;7389260;19;20007;-72
2024/04/04 04:41:20;;;;;;;6.40;2.60;;;;;;;9.94;100.00;99749.00;7384371;19;20017;-72
2024/04/04 04:43:46;;;;;;;4.32;2.90;;;;;;;9.92;100.00;99739.44;7380168;19;20356;-72
2024/04/04 04:46:13;;;;;;;6.35;2.88;;;;;;;9.43;100.00;99661.03;7387139;19;20486;-72
2024/04/04 04:48:39;;;;;;;6.55;3.10;;;;;;;9.87;100.00;99734.44;7386969;19;20022;-72
2024/04/04 04:51:05;;;;;;;4.22;2.78;;;;;;;9.70;100.00;99710.69;7384089;19;20722;-74
2024/04/04 04:53:31;;;;;;;3.97;2.90;;;;;;;9.87;100.00;99734.44;7378346;19;20558;-75
2024/04/04 04:55:56;;;;;;;8.35;4.15;;;;;;;9.79;100.00;99716.31;7384007;19;20018;-72
2024/04/04 04:58:22;;;;;;;3.65;3.00;;;;;;;9.94;100.00;99745.50;7387822;19;20011;-72
2024/04/04 05:00:51;;;;;;;6.50;3.25;;;;;;;9.95;100.00;99732.19;7383948;19;20066;-73
2024/04/04 05:03:17;;;;;;;6.55;3.35;;;;;;;9.96;100.00;99727.75;7375440;19;20039;-73
2024/04/04 05:05:43;;;;;;;7.70;3.40;;;;;;;9.94;100.00;99709.31;7388509;19;20483;-74
2024/04/04 05:08:08;;;;;;;6.40;3.10;;;;;;;9.98;100.00;99704.72;7386061;19;20017;-73
2024/04/04 05:10:36;;;;;;;4.57;3.05;;;;;;;9.91;100.00;99684.88;7388600;19;20009;-73
2024/04/04 05:13:01;;;;;;;7.63;3.08;;;;;;;10.24;100.00;99719.16;7376582;19;20017;-73
2024/04/04 05:15:27;;;;;;;10.13;2.58;;;;;;;10.48;100.00;99731.03;7389051;19;20680;-73
2024/04/04 05:17:52;;;;;;;4.90;2.08;;;;;;;10.43;100.00;99710.09;7384455;19;20022;-73
2024/04/04 05:20:18;;;;;;;4.25;2.20;;;;;;;10.54;100.00;99701.56;7387312;19;20011;-72
2024/04/04 05:22:44;;;;;;;6.90;2.30;;;;;;;10.78;100.00;99718.66;7378041;19;20078;-72
2024/04/04 05:25:14;;;;;;;5.45;2.30;;;;;;;10.81;100.00;99712.34;7384825;19;20018;-72
2024/04/04 05:27:41;;;;;;;4.32;1.88;;;;;;;10.54;100.00;99648.63;7385985;19;20478;-72
2024/04/04 05:30:10;;;;;;;6.97;1.90;;;;;;;10.97;100.00;99691.09;7385770;19;20371;-73
2024/04/04 05:32:37;;;;;;;7.78;1.60;;;;;;;10.85;100.00;99663.56;7379107;19;20010;-73
2024/04/04 05:35:04;;;;;;;5.68;1.55;;;;;;;11.14;100.00;99686.50;7385027;19;20551;-77
2024/04/04 05:37:33;;;;;;;4.30;1.50;;;;;;;11.25;100.00;99694.63;7385461;19;19999;-74
2024/04/04 05:39:59;;;;;;;8.65;2.03;;;;;;;11.34;100.00;99690.56;7386887;19;20010;-72
2024/04/04 05:42:29;;;;;;;4.20;1.55;;;;;;;11.37;100.00;99689.53;7376489;19;20010;-73
2024/04/04 05:44:54;;;;;;;7.63;1.73;;;;;;;11.44;100.00;99681.13;7388530;19;20015;-73
2024/04/04 05:47:20;;;;;;;6.78;1.95;;;;;;;11.44;100.00;99677.63;7386910;19;20034;-72
2024/04/04 05:49:46;;;;;;;6.10;1.75;;;;;;;11.39;100.00;99664.63;7385094;19;20066;-73
2024/04/04 05:52:12;;;;;;;7.22;1.52;;;;;;;11.64;100.00;99687.00;7378649;19;20026;-73
2024/04/04 05:54:39;;;;;;;5.97;1.60;;;;;;;11.45;100.00;99653.66;7382878;19;20013;-73
2024/04/04 05:57:05;;;;;;;8.40;1.60;;;;;;;11.36;100.00;99621.56;7387363;19;20014;-73
2024/04/04 05:59:32;;;;;;;5.60;1.85;;;;;;;11.62;100.00;99657.06;7383808;19;20002;-74
2024/04/04 06:01:57;;;;;;;7.00;1.75;;;;;;;11.71;100.00;99667.94;7375787;19;20014;-72
2024/04/04 06:04:25;;;;;;;6.43;1.60;;;;;;;11.67;100.00;99663.75;7378079;19;20386;-78
2024/04/04 06:06:50;;;;;;;9.07;1.73;;;;;;;11.81;100.00;99658.47;7384085;19;20007;-74
2024/04/04 06:09:16;;;;;;;12.98;1.52;;;;;;;11.93;100.00;99667.47;7380624;19;20015;-74
2024/04/04 06:11:41;;;;;;;6.28;1.42;;;;;;;12.00;100.00;99652.81;7380578;19;20017;-73
2024/04/04 06:14:07;;;;;;;8.40;1.92;;;;;;;12.24;100.00;99671.63;7373798;19;20011;-74
2024/04/04 06:16:34;;;;;;;6.63;1.45;;;;;;;11.99;100.00;99613.13;7380971;19;20015;-73
2024/04/04 06:18:59;;;;;;;8.27;1.60;;;;;;;11.47;100.00;99519.22;7380348;19;20357;-73
2024/04/04 06:21:25;;;;;;;13.48;2.20;;;;;;;12.46;100.00;99657.78;7381124;19;20028;-73
2024/04/04 06:23:50;;;;;;;7.90;1.85;;;;;;;12.31;100.00;99635.75;7377428;19;20027;-72
2024/04/04 06:26:16;;;;;;;6.10;1.65;;;;;;;12.07;100.00;99595.78;7385276;19;20036;-73
2024/04/04 06:28:44;;;;;;;6.35;1.75;;;;;;;12.40;100.00;99645.78;7383419;19;20014;-73
2024/04/04 06:31:10;;;;;;;7.28;2.10;;;;;;;12.26;100.00;99606.88;7382814;19;20011;-73
2024/04/04 06:33:36;;;;;;;6.55;2.03;;;;;;;12.75;100.00;99661.16;7383248;19;20050;-74
2024/04/04 06:36:01;;;;;;;6.68;2.33;;;;;;;12.67;100.00;99643.06;7393193;19;20010;-74
2024/04/04 06:38:27;;;;;;;10.32;1.85;;;;;;;12.59;100.00;99632.94;7391652;19;20358;-73
2024/04/04 06:40:52;;;;;;;8.32;1.80;;;;;;;12.57;100.00;99628.72;7386501;19;20026;-73
2024/04/04 06:43:19;;;;;;;8.13;1.80;;;;;;;12.61;100.00;99638.16;7379994;19;20010;-73
2024/04/04 06:45:45;;;;;;;9.98;2.30;;;;;;;12.53;100.00;99622.75;7385474;19;20006;-73
2024/04/04 06:48:10;;;;;;;8.43;1.92;;;;;;;12.74;100.00;99655.00;7387896;19;20464;-73
2024/04/04 06:50:36;;;;;;;13.27;2.22;;;;;;;12.74;100.00;99655.00;7386819;19;20014;-73
2024/04/04 06:53:03;;;;;;;9.63;1.83;;;;;;;12.78;100.00;99651.16;7385275;19;20013;-72
2024/04/04 06:55:28;;;;;;;11.68;2.00;;;;;;;12.82;100.00;99665.94;7388616;19;20022;-73
2024/04/04 06:57:54;;;;;;;9.85;2.03;;;;;;;12.35;100.00;99584.16;7392056;19;20014;-74
2024/04/04 07:00:20;;;;;;;10.48;1.95;;;;;;;12.69;100.00;99642.97;7388628;19;20364;-73
2024/04/04 07:02:45;;;;;;;7.38;1.70;;;;;;;12.51;100.00;99618.50;7387940;19;20010;-73
2024/04/04 07:05:11;;;;;;;7.88;1.70;;;;;;;12.56;100.00;99629.69;7389725;19;20453;-72
2024/04/04 07:07:37;;;;;;;7.10;1.60;;;;;;;12.69;100.00;99651.78;7390661;19;20006;-74
2024/04/04 07:10:06;;;;;;;8.48;1.63;;;;;;;12.63;100.00;99647.75;7391525;19;20122;-73
2024/04/04 07:12:32;;;;;;;7.75;1.80;;;;;;;12.58;100.00;99633.09;7387318;19;20017;-73
2024/04/04 07:14:58;;;;;;;11.85;1.98;;;;;;;12.29;100.00;99588.06;7386056;19;20010;-74
2024/04/04 07:17:28;;;;;;;9.05;1.65;;;;;;;12.66;100.00;99657.31;7389466;19;20533;-73
2024/04/04 07:19:55;;;;;;;8.98;2.20;;;;;;;12.48;100.00;99616.91;7386494;19;22106;-72
2024/04/04 07:22:21;;;;;;;7.60;1.67;;;;;;;12.45;100.00;99600.31;7383194;19;20010;-73
2024/04/04 07:24:47;;;;;;;10.13;2.03;;;;;;;12.70;100.00;99652.66;7378577;19;20034;-74
2024/04/04 07:27:14;;;;;;;6.85;1.90;;;;;;;12.70;100.00;99652.66;7389194;19;20010;-72
2024/04/04 07:29:42;;;;;;;5.82;2.20;;;;;;;12.62;100.00;99643.38;7387318;19;20011;-73
2024/04/04 07:32:08;;;;;;;10.10;2.13;;;;;;;12.56;100.00;99605.78;7386021;19;20655;-74
2024/04/04 07:34:37;;;;;;;8.75;1.70;;;;;;;12.80;100.00;99617.38;7381473;19;20038;-73
2024/04/04 07:37:03;;;;;;;10.43;1.85;;;;;;;12.54;100.00;99579.31;7387994;19;20389;-73
2024/04/04 07:39:33;;;;;;;11.07;1.88;;;;;;;12.71;100.00;99612.69;7388190;19;20018;-72
2024/04/04 07:42:00;;;;;;;8.48;1.83;;;;;;;12.89;100.00;99640.69;7367287;19;20014;-72
2024/04/04 07:44:26;;;;;;;5.97;2.20;;;;;;;12.98;100.00;99658.63;7376660;19;20512;-73
2024/04/04 07:46:53;;;;;;;6.93;1.70;;;;;;;12.32;100.00;99562.28;7386122;19;20017;-72
2024/04/04 07:49:20;;;;;;;9.63;1.67;;;;;;;12.62;100.00;99598.22;7387230;19;20034;-72
2024/04/04 07:51:47;;;;;;;11.15;1.48;;;;;;;12.72;100.00;99600.28;7387040;19;20051;-73
2024/04/04 07:54:13;;;;;;;8.27;1.60;;;;;;;13.07;100.00;99643.00;7378685;19;20360;-73
2024/04/04 07:56:38;;;;;;;7.35;1.55;;;;;;;12.95;100.00;99616.31;7384740;19;20022;-72
2024/04/04 07:59:04;;;;;;;6.93;1.55;;;;;;;12.81;100.00;99587.19;7383807;19;21216;-72
2024/04/04 08:01:30;;;;;;;6.40;1.42;;;;;;;13.13;100.00;99627.50;7381615;19;20014;-73
2024/04/04 08:03:56;;;;;;;9.18;1.95;;;;;;;13.14;100.00;99641.63;7375386;19;20003;-74
2024/04/04 08:06:22;;;;;;;6.82;1.35;;;;;;;13.06;100.00;99615.59;7386104;19;20109;-74
2024/04/04 08:08:48;;;;;;;9.77;1.65;;;;;;;12.78;100.00;99571.47;7385651;19;20030;-74
2024/04/04 08:11:15;;;;;;;6.43;1.25;;;;;;;13.22;100.00;99642.81;7382600;19;20018;-73
2024/04/04 08:13:43;;;;;;;8.52;1.70;;;;;;;13.17;100.00;99650.28;7375495;19;20011;-72
2024/04/04 08:16:08;;;;;;;9.85;1.63;;;;;;;13.02;100.00;99602.63;7384395;19;20011;-72
2024/04/04 08:18:34;;;;;;;8.02;1.60;;;;;;;13.20;100.00;99635.94;7385890;19;20028;-73
2024/04/04 08:21:00;;;;;;;5.82;1.38;;;;;;;13.04;100.00;99595.41;7384862;19;20082;-72
2024/04/04 08:23:27;;;;;;;8.85;1.60;;;;;;;13.21;100.00;99627.84;7383312;19;20740;-73
2024/04/04 08:25:56;;;;;;;3.55;0.93;;;;;;;13.03;100.00;99597.19;7383060;19;20010;-74
2024/04/04 08:28:22;;;;;;;12.57;1.80;;;;;;;13.12;100.00;99611.66;7383068;19;20006;-73
2024/04/04 08:31:06;;;;;;;7.95;1.67;;;;;;;12.92;100.00;99587.28;7383191;19;20018;-74
2024/04/04 08:33:33;;;;;;;7.75;2.05;;;;;;;13.20;100.00;99638.59;7374907;19;20013;-73
2024/04/04 08:35:59;;;;;;;5.25;1.55;;;;;;;13.06;100.00;99643.97;7383857;19;20018;-73
2024/04/04 08:38:25;;;;;;;7.18;1.90;;;;;;;13.10;100.00;99645.44;7384397;19;20010;-72
2024/04/04 08:40:56;;;;;;;5.90;1.67;;;;;;;12.85;100.00;99617.91;7384803;19;20015;-72
2024/04/04 08:43:24;;;;;;;8.15;2.63;;;;;;;12.77;100.00;99603.44;7377614;19;20972;-72
2024/04/04 08:45:49;;;;;;;7.68;2.10;;;;;;;12.79;100.00;99615.66;7381746;19;20034;-72
2024/04/04 08:48:18;;;;;;;9.23;2.10;;;;;;;12.82;100.00;99627.91;7386745;19;20392;-73
2024/04/04 08:50:48;;;;;;;8.85;2.00;;;;;;;12.51;100.00;99584.84;7379805;19;20006;-73
2024/04/04 08:53:22;;;;;;;10.15;2.25;;;;;;;12.70;100.00;99626.94;7380252;19;20007;-73
2024/04/04 08:55:51;;;;;;;11.57;2.20;;;;;;;12.71;100.00;99618.00;7381252;19;20006;-74
2024/04/04 08:58:18;;;;;;;8.30;1.30;;;;;;;12.58;100.00;99606.53;7382340;19;20010;-73
2024/04/04 09:00:44;;;;;;;7.95;1.80;;;;;;;12.43;100.00;99573.91;7382623;19;20014;-71
2024/04/04 09:03:11;;;;;;;12.25;2.38;;;;;;;12.54;100.00;99595.25;7380149;19;20034;-72
2024/04/04 09:05:44;;;;;;;4.70;1.35;;;;;;;12.51;100.00;99599.91;7377060;19;20144;-72
2024/04/04 09:08:11;;;;;;;6.75;1.73;;;;;;;12.70;100.00;99621.63;7382878;19;20010;-72
2024/04/04 09:10:40;;;;;;;7.25;1.60;;;;;;;12.45;100.00;99595.00;7381321;19;20010;-74
2024/04/04 09:13:07;;;;;;;7.68;1.75;;;;;;;12.73;100.00;99640.03;7377368;19;20003;-72
2024/04/04 09:15:34;;;;;;;7.72;1.95;;;;;;;12.73;100.00;99637.38;7379215;19;20002;-73
2024/04/04 09:18:10;;;;;;;4.93;1.63;;;;;;;12.75;100.00;99646.06;7383677;19;20532;-72
2024/04/04 09:20:38;;;;;;;9.25;1.67;;;;;;;12.64;100.00;99645.94;7383607;19;20033;-75
2024/04/04 09:23:08;;;;;;;6.35;1.58;;;;;;;12.35;100.00;99642.56;7381880;19;20010;-73
2024/04/04 09:25:34;;;;;;;6.77;1.63;;;;;;;12.33;100.00;99649.78;7375668;19;20021;-73
2024/04/04 09:28:05;;;;;;;8.02;1.77;;;;;;;12.24;100.00;99659.22;7385407;19;20018;-72
2024/04/04 09:30:33;;;;;;;7.13;1.67;;;;;;;12.19;100.00;99641.88;7385958;19;20011;-75
2024/04/04 09:32:59;;;;;;;7.97;1.80;;;;;;;12.28;100.00;99675.78;7387243;19;20347;-73
2024/04/04 09:35:24;;;;;;;8.13;1.98;;;;;;;12.10;100.00;99648.66;7380009;19;20011;-74
2024/04/04 09:37:51;;;;;;;5.85;1.98;;;;;;;12.05;100.00;99656.03;7385659;19;20483;-72
2024/04/04 09:40:19;;;;;;;9.13;2.20;;;;;;;11.92;100.00;99626.81;7386320;19;20010;-73
2024/04/04 09:42:46;;;;;;;6.70;1.67;;;;;;;12.18;100.00;99659.59;7386908;19;20018;-72
2024/04/04 09:45:14;;;;;;;6.85;1.65;;;;;;;12.28;100.00;99670.47;7382188;19;20029;-73
2024/04/04 09:47:44;;;;;;;6.50;1.38;;;;;;;12.30;100.00;99671.22;7387639;19;20019;-72
2024/04/04 09:50:13;;;;;;;3.60;0.95;;;;;;;12.21;100.00;99654.09;7384410;19;20026;-73
2024/04/04 09:52:39;;;;;;;2.65;1.00;;;;;;;12.23;100.00;99676.09;7385102;19;20011;-73
2024/04/04 09:55:09;;;;;;;3.60;0.80;;;;;;;12.26;100.00;99690.97;7378764;19;20052;-73
2024/04/04 09:57:35;;;;;;;;;;;;;;;12.45;100.00;99725.13;7384487;19;20014;-73
2024/04/04 10:00:13;;;;;;;4.07;0.82;;;;;;;12.32;100.00;99684.41;7384031;19;19983;-73
2024/04/04 10:02:49;;;;;;;1.65;0.68;;;;;;;12.63;100.00;99714.13;7389685;19;20034;-72
2024/04/04 10:05:20;;;;;;;2.35;0.60;;;;;;;12.65;100.00;99714.03;7388392;19;20039;-72
2024/04/04 10:07:49;;;;;;;4.43;0.65;;;;;;;12.75;100.00;99714.31;7397314;19;20027;-72
2024/04/04 10:10:21;;;;;;;4.18;0.93;;;;;;;12.83;100.00;99718.13;7394050;19;20615;-72
2024/04/04 10:12:52;;;;;;;2.53;0.63;;;;;;;12.85;100.00;99712.72;7396909;19;20010;-73
2024/04/04 10:15:22;;;;;;;2.38;0.50;;;;;;;12.83;100.00;99711.97;7385446;19;20364;-71
2024/04/04 10:17:53;;;;;;;3.45;0.55;;;;;;;12.68;100.00;99678.47;7394756;19;20015;-73
2024/04/04 10:20:23;;;;;;;4.35;0.75;;;;;;;12.63;100.00;99653.06;7390351;19;19999;-73
2024/04/04 10:22:58;;;;;;;3.17;0.55;;;;;;;13.08;100.00;99704.03;7390482;19;20038;-73
2024/04/04 10:25:26;;;;;;;1.15;0.50;;;;;;;13.02;100.00;99677.03;7383546;19;20017;-73
2024/04/04 10:28:04;;;;;;;1.65;0.60;;;;;;;13.17;100.00;99694.63;7393549;19;20387;-73
2024/04/04 10:30:40;;;;;;;1.70;0.50;;;;;;;13.38;100.00;99705.59;7392033;19;20019;-72
2024/04/04 10:33:13;;;;;;;0.98;0.60;;;;;;;13.22;100.00;99673.91;7394738;19;20006;-73
2024/04/04 10:35:40;;;;;;;2.05;0.50;;;;;;;13.43;100.00;99693.66;7383889;19;20010;-72
2024/04/04 10:38:13;;;;;;;1.90;0.50;;;;;;;13.41;100.00;99692.06;7392289;19;20354;-72
2024/04/04 10:40:39;;;;;;;2.50;1.70;;;;;;;13.56;100.00;99697.16;7390400;19;20007;-73
2024/04/04 10:43:08;;;;;;;3.65;0.80;;;;;;;13.51;100.00;99666.53;7392008;19;20006;-74
2024/04/04 10:45:37;;;;;;;2.10;0.40;;;;;;;13.79;100.00;99700.03;7384417;19;20007;-73
2024/04/04 10:48:03;;;;;;;2.05;0.50;;;;;;;13.76;100.00;99708.22;7390068;19;20031;-74
2024/04/04 10:50:30;;;;;;;2.50;0.57;;;;;;;13.59;100.00;99683.66;7390270;19;20039;-71
2024/04/04 10:52:57;;;;;;;1.80;0.45;;;;;;;13.22;100.00;99634.03;7391117;19;20011;-72
2024/04/04 10:55:24;;;;;;;1.50;0.50;;;;;;;13.64;100.00;99709.94;7386087;19;20026;-75
2024/04/04 10:57:53;;;;;;;1.98;0.65;;;;;;;13.18;100.00;99651.13;7394077;19;20021;-73
2024/04/04 11:00:20;;;;;;;2.47;0.68;;;;;;;13.51;100.00;99715.28;7393813;19;20014;-73
2024/04/04 11:02:53;;;;;;;2.03;0.80;;;;;;;13.53;100.00;99712.50;7392172;19;20771;-73
2024/04/04 11:05:20;;;;;;;2.13;0.60;;;;;;;13.46;100.00;99721.84;7382643;19;20010;-74
2024/04/04 11:07:46;;;;;;;1.52;0.40;;;;;;;13.39;100.00;99737.38;7389568;19;20006;-73
2024/04/04 11:10:17;;;;;;;2.38;0.60;;;;;;;13.15;100.00;99716.00;7388776;19;20018;-72
2024/04/04 11:12:46;;;;;;;2.15;0.55;;;;;;;12.98;100.00;99700.31;7390721;19;20015;-72
2024/04/04 11:15:14;;;;;;;1.60;0.65;;;;;;;13.17;100.00;99726.53;7384183;19;20025;-72
2024/04/04 11:17:41;;;;;;;3.60;1.00;;;;;;;13.22;100.00;99738.53;7389405;19;20006;-72
2024/04/04 11:20:14;;;;;;;2.28;0.88;;;;;;;13.14;100.00;99745.31;7386980;19;20493;-72
2024/04/04 11:22:43;;;;;;;2.88;1.20;;;;;;;12.76;100.00;99702.69;7385508;19;20108;-74
2024/04/04 11:25:10;;;;;;;1.88;0.52;;;;;;;12.76;100.00;99700.88;7379463;19;20025;-72